Terminal Aerodrome Forecast
Issued by NWS Paducah, KY

Home | Current Version | Previous Version | Graphics & Text | Print | Product List | Glossary On
Versions: 1 2 3 4 5 6 7 8 9 10 11 12 13 14 15 16 17 18 19 20 21
821
FTUS43 KPAH 231120
TAFEVV
TAF
KEVV 231120Z 2312/2412 19004KT P6SM BKN025
      TEMPO 2312/2315 SCT025
     FM231500 19010KT P6SM BKN030
     FM240000 17007KT P6SM SCT030 BKN250
     FM240900 18010KT P6SM BKN030=

USA.gov is the U.S. government's official web portal to all federal, state and local government web resources and services.